Weather History for KGOP - December, 2013

Change the Weather History Date:

Thursday, December 19, 2013

  Actual Average (KHLR) Record (KHLR)
Temperature  
Mean Temperature 64 °F -  
Max Temperature 73 °F 57 °F 82 °F (2012)
Min Temperature 55 °F 37 °F 28 °F (1996)
Degree Days  
Heating Degree Days 1    
Growing Degree Days 14 (Base 50)    
Moisture  
Dew Point 56 °F    
Average Humidity 76    
Maximum Humidity 94    
Minimum Humidity 53    
Precipitation  
Precipitation 0.00 in - - ()
Sea Level Pressure  
Sea Level Pressure 29.90 in    
Wind  
Wind Speed 11 mph (South)    
Max Wind Speed 23 mph    
Max Gust Speed 36 mph    
Visibility 10 miles    
Events      
Averages and records for this station are not official NWS values.
T = Trace of Precipitation, MM = Missing Value Source: NWS Daily Summary

Daily Weather History Graph

Daily Weather History Graph

Search for Another Location

Airport or City:

Trip Planner

Search our weather history database for the weather conditions in past years. The results will help you decide how hot, cold, wet, or windy it might be!

Date:

Astronomy

Dec. 19, 2013 Rise Set
Actual Time 7:25 AM CST 5:31 PM CST
Civil Twilight 6:58 AM CST 5:58 PM CST
Nautical Twilight 6:28 AM CST 6:28 PM CST
Astronomical Twilight 5:58 AM CST 6:58 PM CST
Moon 7:50 PM CST (12/19) 8:51 AM CST (12/19)
Length of Visible Light 10h 59m
Length of Day
10h 06m
Waning Gibbous, 95% of the Moon is Illuminated
Dec 19
Waning Gibbous
Dec 25
Last Quarter
Jan 1
New
Jan 7
First Quarter
Jan 15
Full

Hourly Weather History & Observations

Time (CST) Temp. Dew Point Humidity Pressure Visibility Wind Dir Wind Speed Gust Speed Precip Events Conditions
12:15 AM 55.4 °F 50.0 °F 82% 30.04 in 10.0 mi South 9.2 mph - N/A   Clear
12:35 AM 55.4 °F 50.0 °F 82% 30.03 in 10.0 mi South 10.4 mph 17.3 mph N/A   Clear
12:55 AM 55.4 °F 50.0 °F 82% 30.02 in 10.0 mi South 8.1 mph - N/A   Clear
1:15 AM 55.4 °F 50.0 °F 82% 30.02 in 10.0 mi South 8.1 mph - N/A   Clear
1:35 AM 55.4 °F 50.0 °F 82% 30.01 in 10.0 mi South 6.9 mph - N/A   Clear
1:55 AM 55.4 °F 50.0 °F 82% 30.01 in 10.0 mi South 8.1 mph - N/A   Clear
2:15 AM 55.4 °F 51.8 °F 88% 30.01 in 10.0 mi South 9.2 mph - N/A   Partly Cloudy
2:35 AM 55.4 °F 51.8 °F 88% 30.00 in 10.0 mi South 8.1 mph - N/A   Partly Cloudy
2:55 AM 55.4 °F 51.8 °F 88% 30.00 in 10.0 mi South 8.1 mph - N/A   Partly Cloudy
3:15 AM 55.4 °F 51.8 °F 88% 29.99 in 10.0 mi South 9.2 mph - N/A   Clear
3:35 AM 55.4 °F 51.8 °F 88% 29.99 in 10.0 mi South 6.9 mph - N/A   Mostly Cloudy
3:55 AM 55.4 °F 51.8 °F 88% 29.99 in 10.0 mi South 5.8 mph - N/A   Overcast
4:15 AM 55.4 °F 51.8 °F 88% 29.98 in 10.0 mi South 6.9 mph - N/A   Overcast
4:35 AM 57.2 °F 53.6 °F 88% 29.98 in 10.0 mi South 9.2 mph - N/A   Overcast
4:55 AM 57.2 °F 53.6 °F 88% 29.97 in 10.0 mi South 10.4 mph - N/A   Overcast
5:15 AM 57.2 °F 53.6 °F 88% 29.95 in 10.0 mi SSE 13.8 mph - N/A   Overcast
5:35 AM 57.2 °F 53.6 °F 88% 29.95 in 10.0 mi SSE 9.2 mph - N/A   Overcast
5:55 AM 57.2 °F 53.6 °F 88% 29.94 in 10.0 mi SSE 10.4 mph - N/A   Overcast
6:15 AM 57.2 °F 53.6 °F 88% 29.94 in 10.0 mi South 10.4 mph - N/A   Overcast
6:35 AM 57.2 °F 53.6 °F 88% 29.94 in 10.0 mi South 11.5 mph 18.4 mph N/A   Overcast
6:55 AM 59.0 °F 55.4 °F 88% 29.94 in 10.0 mi South 8.1 mph - N/A   Mostly Cloudy
7:15 AM 59.0 °F 55.4 °F 88% 29.94 in 10.0 mi South 9.2 mph 16.1 mph N/A   Mostly Cloudy
7:35 AM 59.0 °F 55.4 °F 88% 29.95 in 10.0 mi South 15.0 mph 18.4 mph N/A   Mostly Cloudy
7:55 AM 60.8 °F 55.4 °F 82% 29.95 in 10.0 mi South 10.4 mph - N/A   Mostly Cloudy
8:15 AM 60.8 °F 55.4 °F 82% 29.96 in 10.0 mi South 9.2 mph 18.4 mph N/A   Mostly Cloudy
8:35 AM 60.8 °F 55.4 °F 82% 29.96 in 10.0 mi South 9.2 mph - N/A   Overcast
8:55 AM 60.8 °F 55.4 °F 82% 29.95 in 10.0 mi South 8.1 mph - N/A   Overcast
9:15 AM 62.6 °F 55.4 °F 77% 29.96 in 10.0 mi South 11.5 mph 17.3 mph N/A   Mostly Cloudy
9:35 AM 62.6 °F 55.4 °F 77% 29.95 in 10.0 mi South 15.0 mph 20.7 mph N/A   Mostly Cloudy
9:55 AM 64.4 °F 55.4 °F 73% 29.96 in 10.0 mi South 13.8 mph 21.9 mph N/A   Mostly Cloudy
10:15 AM 64.4 °F 55.4 °F 73% 29.95 in 10.0 mi SSW 21.9 mph 25.3 mph N/A   Mostly Cloudy
10:35 AM 66.2 °F 55.4 °F 68% 29.95 in 10.0 mi SSW 15.0 mph 24.2 mph N/A   Overcast
10:55 AM 66.2 °F 55.4 °F 68% 29.95 in 10.0 mi South 18.4 mph 28.8 mph N/A   Overcast
11:15 AM 66.2 °F 57.2 °F 73% 29.93 in 10.0 mi SSW 21.9 mph 27.6 mph N/A   Mostly Cloudy
11:35 AM 69.8 °F 57.2 °F 64% 29.92 in 10.0 mi South 13.8 mph 28.8 mph N/A   Mostly Cloudy
11:55 AM 69.8 °F 55.4 °F 60% 29.91 in 10.0 mi South 17.3 mph 25.3 mph N/A   Mostly Cloudy
12:15 PM 71.6 °F 57.2 °F 60% 29.90 in 10.0 mi SSW 15.0 mph 31.1 mph N/A   Mostly Cloudy
12:35 PM 71.6 °F 57.2 °F 60% 29.88 in 10.0 mi SSW 21.9 mph 27.6 mph N/A   Mostly Cloudy
12:55 PM 73.4 °F 57.2 °F 57% 29.86 in 10.0 mi SSW 20.7 mph 31.1 mph N/A   Mostly Cloudy
1:15 PM 73.4 °F 55.4 °F 53% 29.84 in 10.0 mi South 23.0 mph 29.9 mph N/A   Mostly Cloudy
1:35 PM 73.4 °F 57.2 °F 57% 29.84 in 10.0 mi South 17.3 mph 35.7 mph N/A   Scattered Clouds
1:55 PM 73.4 °F 55.4 °F 53% 29.84 in 10.0 mi SSW 17.3 mph 28.8 mph N/A   Mostly Cloudy
2:15 PM 71.6 °F 55.4 °F 57% 29.83 in 10.0 mi South 20.7 mph 28.8 mph N/A   Mostly Cloudy
2:35 PM 73.4 °F 57.2 °F 57% 29.83 in 10.0 mi South 17.3 mph 28.8 mph N/A   Mostly Cloudy
2:55 PM 73.4 °F 55.4 °F 53% 29.82 in 10.0 mi South 18.4 mph 28.8 mph N/A   Mostly Cloudy
3:15 PM 71.6 °F 57.2 °F 60% 29.82 in 10.0 mi South 16.1 mph 28.8 mph N/A   Mostly Cloudy
3:35 PM 71.6 °F 55.4 °F 57% 29.82 in 10.0 mi SSW 19.6 mph 26.5 mph N/A   Partly Cloudy
3:55 PM 71.6 °F 55.4 °F 57% 29.81 in 10.0 mi South 12.7 mph 23.0 mph N/A   Scattered Clouds
4:15 PM 71.6 °F 57.2 °F 60% 29.82 in 10.0 mi South 9.2 mph - N/A   Overcast
4:35 PM 71.6 °F 57.2 °F 60% 29.81 in 10.0 mi South 9.2 mph 16.1 mph N/A   Scattered Clouds
4:55 PM 71.6 °F 57.2 °F 60% 29.81 in 10.0 mi South 11.5 mph - N/A   Clear
5:15 PM 69.8 °F 57.2 °F 64% 29.81 in 10.0 mi SSW 11.5 mph - N/A   Clear
5:35 PM 69.8 °F 57.2 °F 64% 29.81 in 10.0 mi SSW 9.2 mph - N/A   Clear
5:55 PM 69.8 °F 57.2 °F 64% 29.82 in 10.0 mi South 4.6 mph - N/A   Clear
6:15 PM 68.0 °F 57.2 °F 68% 29.82 in 10.0 mi South 5.8 mph - N/A   Clear
6:35 PM 66.2 °F 57.2 °F 73% 29.83 in 10.0 mi South 5.8 mph - N/A   Clear
6:55 PM 66.2 °F 57.2 °F 73% 29.83 in 10.0 mi Calm Calm - N/A   Clear
7:15 PM 64.4 °F 57.2 °F 77% 29.82 in 10.0 mi SE 3.5 mph - N/A   Clear
7:35 PM 62.6 °F 57.2 °F 82% 29.82 in 10.0 mi SE 6.9 mph - N/A   Clear
7:55 PM 64.4 °F 57.2 °F 77% 29.83 in 10.0 mi SSE 3.5 mph - N/A   Clear
8:15 PM 64.4 °F 57.2 °F 77% 29.83 in 10.0 mi South 9.2 mph - N/A   Clear
8:35 PM 64.4 °F 57.2 °F 77% 29.84 in 10.0 mi SSE 5.8 mph - N/A   Clear
8:55 PM 64.4 °F 59.0 °F 83% 29.84 in 10.0 mi South 5.8 mph - N/A   Clear
9:15 PM 64.4 °F 60.8 °F 88% 29.83 in 10.0 mi SSE 6.9 mph - N/A   Clear
9:35 PM 64.4 °F 60.8 °F 88% 29.83 in 10.0 mi SSE 6.9 mph - N/A   Clear
9:55 PM 64.4 °F 60.8 °F 88% 29.82 in 10.0 mi South 8.1 mph - N/A   Clear
10:15 PM 64.4 °F 60.8 °F 88% 29.83 in 10.0 mi SSE 8.1 mph - N/A   Partly Cloudy
10:35 PM 64.4 °F 62.6 °F 94% 29.82 in 10.0 mi South 10.4 mph 16.1 mph N/A   Mostly Cloudy
10:55 PM 64.4 °F 62.6 °F 94% 29.82 in 10.0 mi South 11.5 mph 17.3 mph N/A   Overcast
11:15 PM 64.4 °F 62.6 °F 94% 29.82 in 10.0 mi South 10.4 mph 21.9 mph N/A   Mostly Cloudy
11:35 PM 66.2 °F 62.6 °F 88% 29.83 in 10.0 mi South 9.2 mph - N/A   Mostly Cloudy
11:55 PM 66.2 °F 62.6 °F 88% 29.82 in 10.0 mi South 9.2 mph 16.1 mph N/A   Overcast